Little Rock, Arkansas
Current Conditions -  °F | °C
As of 3:53 AM on Saturday 29 Nov 2014 (Local Time) from KLIT Reporting Station
Overcast Overcast  
Wind Chill: 54°   Ceiling: 1200
Heat Index: 54°   Visibility: 10mi
Dew Point: 48°   Wind: 10mph
Humidity: 80%   Direction: 210°SSW
Pressure: 30.01"   Gusts: NA
Location:  34.75°N, 92.27°W
Report Text: KLIT 290953Z 21009KT 10SM OVC012 12/09 A3001 RMK AO2 SLP162 T01220089
Loading
Personal Weather Stations






























Interactive Weather Map New forecast layout! Learn more

10-Day Weather Forecast

Advertisements
Track Severe Weather on mobile